createdAt,value
2023-02-19T00:00:27.404Z,101799.91
2023-02-19T00:02:57.044Z,101795.53
2023-02-19T00:05:25.360Z,101799.63
2023-02-19T00:07:55.267Z,101808.28
2023-02-19T00:10:23.655Z,101800.38
2023-02-19T00:12:52.639Z,101802.81
2023-02-19T00:15:20.923Z,101806.13
2023-02-19T00:17:49.286Z,101811.56
2023-02-19T00:20:17.994Z,101821.63
2023-02-19T00:22:46.386Z,101804.81
2023-02-19T00:25:16.603Z,101810.03
2023-02-19T00:27:44.872Z,101823.63
2023-02-19T00:30:13.791Z,101815.69
2023-02-19T00:32:42.447Z,101818.06
2023-02-19T00:35:10.816Z,101836.94
2023-02-19T00:37:39.180Z,101825.63
2023-02-19T00:40:08.604Z,101832.44
2023-02-19T00:42:38.439Z,101831.09
2023-02-19T00:45:07.287Z,101836.31
2023-02-19T00:47:35.577Z,101832.78
2023-02-19T00:50:04.031Z,101841.91
2023-02-19T00:52:32.559Z,101823.13
2023-02-19T00:55:00.844Z,101827.56
2023-02-19T00:57:29.447Z,101840.59
2023-02-19T00:59:59.232Z,101843.94
2023-02-19T01:02:27.886Z,101838.31
2023-02-19T01:04:56.461Z,101834.00
2023-02-19T01:07:25.358Z,101836.53
2023-02-19T01:09:53.889Z,101840.69
2023-02-19T01:12:24.514Z,101833.78
2023-02-19T01:14:52.860Z,101832.44
2023-02-19T01:17:22.868Z,101834.94
2023-02-19T01:19:53.563Z,101836.16
2023-02-19T01:22:21.832Z,101833.56
2023-02-19T01:24:50.260Z,101838.75
2023-02-19T01:27:18.766Z,101843.63
2023-02-19T01:29:47.236Z,101842.66
2023-02-19T01:32:15.630Z,101843.75
2023-02-19T01:34:45.489Z,101854.78
2023-02-19T01:37:13.697Z,101856.06
2023-02-19T01:39:41.971Z,101862.94
2023-02-19T01:42:14.963Z,101853.78
2023-02-19T01:45:25.851Z,101865.91
2023-02-19T01:47:59.683Z,101862.91
2023-02-19T01:50:36.119Z,101858.53
2023-02-19T01:53:08.901Z,101867.09
2023-02-19T01:55:37.379Z,101860.25
2023-02-19T01:58:05.738Z,101865.66
2023-02-19T02:00:34.831Z,101866.53
2023-02-19T02:03:04.049Z,101872.38
2023-02-19T02:05:47.648Z,101868.38
2023-02-19T02:08:34.106Z,101864.69
2023-02-19T02:11:02.984Z,101871.41
2023-02-19T02:13:31.668Z,101877.44
2023-02-19T02:16:08.656Z,101868.00
2023-02-19T02:18:49.249Z,101872.88
2023-02-19T02:21:35.617Z,101871.25
2023-02-19T02:24:17.451Z,101871.66
2023-02-19T02:26:57.180Z,101878.19
2023-02-19T02:30:08.724Z,101885.84
2023-02-19T02:32:41.272Z,101884.72
2023-02-19T02:35:12.328Z,101878.22
2023-02-19T02:37:43.644Z,101879.66
2023-02-19T02:40:13.449Z,101877.53
2023-02-19T02:42:41.816Z,101877.59
2023-02-19T02:45:37.788Z,101879.00
2023-02-19T02:48:12.642Z,101886.94
2023-02-19T02:50:43.567Z,101887.53
2023-02-19T02:53:33.503Z,101889.66
2023-02-19T02:56:02.827Z,101881.06
2023-02-19T02:58:32.114Z,101894.03
2023-02-19T03:01:22.789Z,101897.00
2023-02-19T03:03:55.799Z,101893.78
2023-02-19T03:06:24.470Z,101886.28
2023-02-19T03:08:56.312Z,101889.25
2023-02-19T03:11:42.495Z,101891.78
2023-02-19T03:14:34.671Z,101901.84
2023-02-19T03:17:28.226Z,101910.94
2023-02-19T03:19:59.723Z,101907.91
2023-02-19T03:22:31.587Z,101906.66
2023-02-19T03:25:19.892Z,101911.78
2023-02-19T03:27:49.424Z,101914.00
2023-02-19T03:30:21.013Z,101893.94
2023-02-19T03:32:55.895Z,101908.03
2023-02-19T03:35:25.915Z,101911.81
2023-02-19T03:37:59.597Z,101919.28
2023-02-19T03:40:30.866Z,101912.50
2023-02-19T03:43:05.071Z,101915.19
2023-02-19T03:45:43.301Z,101925.38
2023-02-19T03:48:24.949Z,101923.16
2023-02-19T03:50:59.904Z,101918.50
2023-02-19T03:53:32.866Z,101919.53
2023-02-19T03:56:08.232Z,101917.41
2023-02-19T03:58:41.776Z,101941.78
2023-02-19T04:01:14.130Z,101944.75
2023-02-19T04:03:48.330Z,101950.59
2023-02-19T04:06:19.281Z,101934.06
2023-02-19T04:08:50.721Z,101954.63
2023-02-19T04:11:19.653Z,101957.63
2023-02-19T04:13:52.092Z,101968.16
2023-02-19T04:16:22.766Z,101962.88
2023-02-19T04:18:55.700Z,101980.38
2023-02-19T04:21:24.805Z,101970.69
2023-02-19T04:23:53.601Z,101969.41
2023-02-19T04:26:23.943Z,101982.34
2023-02-19T04:28:52.325Z,101985.88
2023-02-19T04:31:20.956Z,101988.41
2023-02-19T04:33:49.469Z,101996.66
2023-02-19T04:36:19.342Z,101995.72
2023-02-19T04:38:47.715Z,101996.31
2023-02-19T04:41:16.334Z,102006.44
2023-02-19T04:43:44.795Z,102012.00
2023-02-19T04:46:13.100Z,102022.78
2023-02-19T04:48:45.105Z,102024.25
2023-02-19T04:51:13.678Z,102032.16
2023-02-19T04:53:43.913Z,102039.88
2023-02-19T04:56:13.640Z,102039.78
2023-02-19T04:58:43.365Z,102034.22
2023-02-19T05:01:12.903Z,102040.22
2023-02-19T05:03:41.782Z,102036.81
2023-02-19T05:06:12.745Z,102034.81
2023-02-19T05:08:42.030Z,102050.22
2023-02-19T05:11:13.593Z,102047.97
2023-02-19T05:13:42.268Z,102050.25
2023-02-19T05:16:14.007Z,102049.25
2023-02-19T05:18:42.521Z,102047.31
2023-02-19T05:21:11.757Z,102066.28
2023-02-19T05:23:40.364Z,102061.59
2023-02-19T05:26:08.885Z,102071.06
2023-02-19T05:28:38.644Z,102070.53
2023-02-19T05:31:09.857Z,102082.28
2023-02-19T05:33:38.806Z,102064.63
2023-02-19T05:36:08.958Z,102086.00
2023-02-19T05:38:40.301Z,102076.38
2023-02-19T05:41:10.789Z,102081.91
2023-02-19T05:43:41.688Z,102084.34
2023-02-19T05:46:11.194Z,102075.16
2023-02-19T05:48:40.836Z,102078.81
2023-02-19T05:51:11.211Z,102090.47
2023-02-19T05:53:40.208Z,102099.03
2023-02-19T05:56:24.692Z,102101.28
2023-02-19T05:58:55.286Z,102093.34
2023-02-19T06:01:25.829Z,102102.59
2023-02-19T06:03:57.229Z,102090.69
2023-02-19T06:06:26.475Z,102107.59
2023-02-19T06:08:55.712Z,102120.47
2023-02-19T06:11:24.932Z,102113.38
2023-02-19T06:14:00.013Z,102108.81
2023-02-19T06:16:28.381Z,102118.88
2023-02-19T06:18:57.021Z,102125.19
2023-02-19T06:21:25.554Z,102131.19
2023-02-19T06:23:54.197Z,102134.31
2023-02-19T06:26:24.036Z,102129.81
2023-02-19T06:28:54.349Z,102114.41
2023-02-19T06:31:25.181Z,102125.91
2023-02-19T06:33:55.122Z,102131.06
2023-02-19T06:36:24.469Z,102132.34
2023-02-19T06:38:53.125Z,102141.56
2023-02-19T06:41:21.409Z,102141.63
2023-02-19T06:43:49.803Z,102151.84
2023-02-19T06:46:18.365Z,102148.28
2023-02-19T06:48:48.231Z,102152.50
2023-02-19T06:51:18.853Z,102153.69
2023-02-19T06:53:47.490Z,102161.03
2023-02-19T06:56:26.391Z,102154.84
2023-02-19T06:58:55.742Z,102172.22
2023-02-19T07:01:25.001Z,102172.94
2023-02-19T07:03:55.028Z,102180.09
2023-02-19T07:06:25.309Z,102186.63
2023-02-19T07:08:55.422Z,102193.38
2023-02-19T07:11:24.730Z,102197.00
2023-02-19T07:13:58.073Z,102206.00
2023-02-19T07:16:26.497Z,102211.09
2023-02-19T07:18:57.659Z,102220.38
2023-02-19T07:21:28.443Z,102208.13
2023-02-19T07:23:59.817Z,102215.16
2023-02-19T07:26:28.195Z,102223.81
2023-02-19T07:28:56.516Z,102221.81
2023-02-19T07:31:25.572Z,102228.38
2023-02-19T07:33:59.506Z,102252.59
2023-02-19T07:36:28.058Z,102227.91
2023-02-19T07:38:59.541Z,102233.84
2023-02-19T07:41:28.968Z,102240.47
2023-02-19T07:43:57.095Z,102241.53
2023-02-19T07:46:27.736Z,102235.22
2023-02-19T07:48:58.086Z,102249.34
2023-02-19T07:51:26.658Z,102254.41
2023-02-19T07:53:55.112Z,102254.34
2023-02-19T07:56:23.513Z,102256.75
2023-02-19T07:58:51.883Z,102259.66
2023-02-19T08:01:41.166Z,102264.44
2023-02-19T08:04:11.695Z,102269.88
2023-02-19T08:06:40.191Z,102274.88
2023-02-19T08:09:08.830Z,102279.06
2023-02-19T08:11:54.554Z,102287.44
2023-02-19T08:14:26.293Z,102297.91
2023-02-19T08:16:55.217Z,102304.75
2023-02-19T08:19:25.080Z,102302.03
2023-02-19T08:21:53.678Z,102308.25
2023-02-19T08:24:25.142Z,102312.53
2023-02-19T08:26:57.418Z,102318.38
2023-02-19T08:29:26.021Z,102321.81
2023-02-19T08:31:55.034Z,102313.81
2023-02-19T08:34:24.916Z,102318.66
2023-02-19T08:36:53.408Z,102323.91
2023-02-19T08:39:21.840Z,102325.66
2023-02-19T08:41:53.778Z,102321.41
2023-02-19T08:44:22.729Z,102320.44
2023-02-19T08:47:00.436Z,102320.63
2023-02-19T08:49:32.096Z,102321.06
2023-02-19T08:52:01.175Z,102323.91
2023-02-19T08:54:29.859Z,102334.66
2023-02-19T08:56:58.950Z,102328.84
2023-02-19T08:59:31.953Z,102333.25
2023-02-19T09:02:03.371Z,102341.50
2023-02-19T09:04:33.716Z,102355.38
2023-02-19T09:07:02.115Z,102353.50
2023-02-19T09:09:30.879Z,102363.31
2023-02-19T09:11:59.858Z,102367.44
2023-02-19T09:14:28.883Z,102376.22
2023-02-19T09:16:59.228Z,102376.16
2023-02-19T09:19:28.274Z,102378.50
2023-02-19T09:21:59.226Z,102386.16
2023-02-19T09:24:27.634Z,102381.91
2023-02-19T09:26:58.129Z,102411.34
2023-02-19T09:29:27.654Z,102410.84
2023-02-19T09:31:58.597Z,102414.56
2023-02-19T09:34:27.706Z,102411.19
2023-02-19T09:36:57.701Z,102430.44
2023-02-19T09:39:26.198Z,102431.75
2023-02-19T09:41:58.573Z,102440.66
2023-02-19T09:44:31.488Z,102443.44
2023-02-19T09:47:03.408Z,102442.78
2023-02-19T09:49:34.847Z,102447.13
2023-02-19T09:52:17.180Z,102447.50
2023-02-19T09:54:46.467Z,102450.03
2023-02-19T09:57:17.094Z,102458.44
2023-02-19T09:59:50.355Z,102469.84
2023-02-19T10:02:22.220Z,102472.66
2023-02-19T10:04:52.291Z,102477.75
2023-02-19T10:07:26.584Z,102489.38
2023-02-19T10:09:57.726Z,102499.31
2023-02-19T10:12:28.449Z,102512.22
2023-02-19T10:15:01.362Z,102523.34
2023-02-19T10:17:34.712Z,102529.13
2023-02-19T10:20:04.794Z,102536.06
2023-02-19T10:22:39.049Z,102526.63
2023-02-19T10:25:08.062Z,102524.34
2023-02-19T10:27:36.435Z,102537.91
2023-02-19T10:30:07.898Z,102541.50
2023-02-19T10:32:36.566Z,102544.78
2023-02-19T10:35:10.675Z,102548.16
2023-02-19T10:37:45.817Z,102550.59
2023-02-19T10:40:17.649Z,102544.34
2023-02-19T10:42:47.909Z,102543.13
2023-02-19T10:45:20.707Z,102529.97
2023-02-19T10:47:50.195Z,102536.38
2023-02-19T10:50:26.901Z,102528.72
2023-02-19T10:53:04.913Z,102533.91
2023-02-19T10:55:39.450Z,102532.66
2023-02-19T10:58:24.670Z,102524.47
2023-02-19T11:01:18.765Z,102521.53
2023-02-19T11:03:50.239Z,102539.88
2023-02-19T11:06:21.669Z,102549.06
2023-02-19T11:08:55.997Z,102552.75
2023-02-19T11:11:33.888Z,102558.63
2023-02-19T11:14:05.627Z,102558.59
2023-02-19T11:16:43.125Z,102558.28
2023-02-19T11:19:39.066Z,102559.13
2023-02-19T11:22:22.075Z,102568.72
2023-02-19T11:24:58.492Z,102564.41
2023-02-19T11:27:30.318Z,102560.53
2023-02-19T11:30:21.345Z,102562.03
2023-02-19T11:32:49.794Z,102575.28
2023-02-19T11:35:24.327Z,102580.97
2023-02-19T11:38:06.666Z,102573.59
2023-02-19T11:40:45.882Z,102572.47
2023-02-19T11:43:35.442Z,102562.50
2023-02-19T11:46:20.867Z,102551.16
2023-02-19T11:49:01.585Z,102555.56
2023-02-19T11:51:51.495Z,102554.97
2023-02-19T11:54:37.771Z,102559.16
2023-02-19T11:57:16.989Z,102569.72
2023-02-19T11:59:49.360Z,102565.34
2023-02-19T12:02:51.947Z,102558.47
2023-02-19T12:05:32.621Z,102567.84
2023-02-19T12:08:23.631Z,102561.91
2023-02-19T12:11:05.609Z,102562.88
2023-02-19T12:13:57.309Z,102549.09
2023-02-19T12:16:28.418Z,102568.06
2023-02-19T12:19:44.784Z,102559.97
2023-02-19T12:22:29.913Z,102559.03
2023-02-19T12:25:26.919Z,102567.88
2023-02-19T12:28:13.539Z,102560.84
2023-02-19T12:31:07.197Z,102572.72
2023-02-19T12:33:50.758Z,102569.75
2023-02-19T12:36:27.604Z,102569.19
2023-02-19T12:39:04.798Z,102560.94
2023-02-19T12:41:39.848Z,102563.56
2023-02-19T12:44:13.413Z,102565.69
2023-02-19T12:46:46.454Z,102577.75
2023-02-19T12:49:20.796Z,102585.84
2023-02-19T12:51:51.698Z,102592.06
2023-02-19T12:54:24.188Z,102590.31
2023-02-19T12:56:57.369Z,102593.34
2023-02-19T12:59:36.009Z,102598.91
2023-02-19T13:02:13.824Z,102599.19
2023-02-19T13:04:47.279Z,102604.63
2023-02-19T13:07:21.157Z,102620.28
2023-02-19T13:09:54.490Z,102616.88
2023-02-19T13:12:26.772Z,102625.03
2023-02-19T13:14:59.968Z,102623.94
2023-02-19T13:17:37.257Z,102621.13
2023-02-19T13:20:19.681Z,102624.44
2023-02-19T13:23:13.902Z,102628.59
2023-02-19T13:25:51.381Z,102627.56
2023-02-19T13:28:35.024Z,102632.00
2023-02-19T13:31:30.853Z,102642.50
2023-02-19T13:34:12.457Z,102636.19
2023-02-19T13:36:43.503Z,102636.31
2023-02-19T13:41:52.943Z,102648.47
2023-02-19T13:44:26.796Z,102652.81
2023-02-19T13:46:55.599Z,102659.06
2023-02-19T13:49:50.125Z,102665.63
2023-02-19T13:52:39.605Z,102665.31
2023-02-19T13:55:49.811Z,102659.84
2023-02-19T13:59:01.590Z,102658.75
2023-02-19T14:02:13.825Z,102671.94
2023-02-19T14:04:55.973Z,102677.78
2023-02-19T14:07:37.241Z,102657.97
2023-02-19T14:10:10.014Z,102654.09
2023-02-19T14:12:42.597Z,102656.13
2023-02-19T14:15:44.433Z,102648.66
2023-02-19T14:18:45.155Z,102646.53
2023-02-19T14:21:29.074Z,102632.50
2023-02-19T14:24:00.381Z,102634.81
2023-02-19T14:26:32.852Z,102616.50
2023-02-19T14:29:02.164Z,102609.41
2023-02-19T14:31:35.017Z,102615.16
2023-02-19T14:34:09.373Z,102600.19
2023-02-19T14:36:45.973Z,102592.19
2023-02-19T14:39:18.954Z,102588.59
2023-02-19T14:41:50.576Z,102587.72
2023-02-19T14:44:22.133Z,102587.63
2023-02-19T14:46:59.735Z,102584.81
2023-02-19T14:49:33.343Z,102586.56
2023-02-19T14:52:08.270Z,102591.09
2023-02-19T14:54:44.579Z,102581.97
2023-02-19T14:57:19.312Z,102584.88
2023-02-19T15:00:03.300Z,102584.19
2023-02-19T15:02:34.915Z,102600.03
2023-02-19T15:05:16.302Z,102596.34
2023-02-19T15:07:47.443Z,102607.09
2023-02-19T15:10:16.575Z,102609.84
2023-02-19T15:12:47.933Z,102618.19
2023-02-19T15:15:20.359Z,102635.75
2023-02-19T15:17:50.301Z,102637.31
2023-02-19T15:20:21.365Z,102639.41
2023-02-19T15:22:52.094Z,102648.59
2023-02-19T15:25:22.325Z,102648.53
2023-02-19T15:27:51.911Z,102643.00
2023-02-19T15:30:31.767Z,102630.88
2023-02-19T15:33:03.031Z,102631.81
2023-02-19T15:35:35.796Z,102634.09
2023-02-19T15:38:18.317Z,102636.88
2023-02-19T15:40:48.690Z,102633.03
2023-02-19T15:43:24.726Z,102643.38
2023-02-19T15:45:56.488Z,102636.81
2023-02-19T15:48:32.130Z,102641.88
2023-02-19T15:51:10.493Z,102645.19
2023-02-19T15:53:45.795Z,102645.94
2023-02-19T15:56:21.110Z,102655.19
2023-02-19T15:58:55.080Z,102654.53
2023-02-19T16:01:26.731Z,102663.53
2023-02-19T16:03:56.495Z,102663.84
2023-02-19T16:06:34.295Z,102675.59
2023-02-19T16:09:07.264Z,102682.16
2023-02-19T16:11:38.713Z,102683.75
2023-02-19T16:14:27.772Z,102674.28
2023-02-19T16:16:59.135Z,102677.50
2023-02-19T16:19:35.212Z,102681.75
2023-02-19T16:22:14.547Z,102692.03
2023-02-19T16:24:48.251Z,102698.25
2023-02-19T16:27:31.126Z,102680.69
2023-02-19T16:30:01.959Z,102696.41
2023-02-19T16:32:31.228Z,102677.56
2023-02-19T16:35:07.749Z,102691.91
2023-02-19T16:37:41.138Z,102695.13
2023-02-19T16:41:07.377Z,102696.97
2023-02-19T16:43:44.622Z,102688.44
2023-02-19T16:46:23.211Z,102688.53
2023-02-19T16:49:03.193Z,102694.22
2023-02-19T16:51:32.505Z,102687.19
2023-02-19T16:54:02.475Z,102678.97
2023-02-19T16:56:38.029Z,102680.66
2023-02-19T16:59:22.514Z,102677.16
2023-02-19T17:01:54.518Z,102666.44
2023-02-19T17:04:23.264Z,102677.00
2023-02-19T17:06:52.231Z,102675.38
2023-02-19T17:09:22.645Z,102682.06
2023-02-19T17:11:54.099Z,102700.72
2023-02-19T17:14:23.949Z,102707.94
2023-02-19T17:17:02.337Z,102712.59
2023-02-19T17:19:39.502Z,102715.09
2023-02-19T17:22:10.496Z,102711.22
2023-02-19T17:24:40.804Z,102711.31
2023-02-19T17:27:13.548Z,102716.63
2023-02-19T17:29:44.020Z,102723.72
2023-02-19T17:32:15.292Z,102729.78
2023-02-19T17:34:44.620Z,102722.97
2023-02-19T17:37:22.453Z,102731.13
2023-02-19T17:40:12.047Z,102731.31
2023-02-19T17:42:45.187Z,102734.69
2023-02-19T17:45:13.981Z,102735.50
2023-02-19T17:47:42.601Z,102735.53
2023-02-19T17:50:15.794Z,102719.50
2023-02-19T17:52:44.344Z,102723.22
2023-02-19T17:55:15.285Z,102717.22
2023-02-19T17:57:46.153Z,102715.97
2023-02-19T18:00:18.220Z,102723.28
2023-02-19T18:02:46.752Z,102714.44
2023-02-19T18:05:15.340Z,102712.88
2023-02-19T18:07:43.976Z,102691.84
2023-02-19T18:10:12.835Z,102691.78
2023-02-19T18:12:41.497Z,102707.56
2023-02-19T18:15:17.674Z,102703.13
2023-02-19T18:17:46.099Z,102685.53
2023-02-19T18:20:16.304Z,102687.63
2023-02-19T18:22:44.750Z,102694.22
2023-02-19T18:25:13.339Z,102700.66
2023-02-19T18:27:41.752Z,102699.56
2023-02-19T18:30:13.211Z,102696.06
2023-02-19T18:32:41.759Z,102706.69
2023-02-19T18:35:10.444Z,102697.56
2023-02-19T18:37:39.138Z,102705.94
2023-02-19T18:40:08.946Z,102707.16
2023-02-19T18:42:37.438Z,102705.47
2023-02-19T18:45:07.775Z,102707.53
2023-02-19T18:47:37.593Z,102711.69
2023-02-19T18:50:08.565Z,102701.09
2023-02-19T18:52:37.194Z,102705.47
2023-02-19T18:55:12.215Z,102705.41
2023-02-19T18:57:41.021Z,102700.13
2023-02-19T19:00:10.612Z,102705.72
2023-02-19T19:02:49.218Z,102700.50
2023-02-19T19:05:23.356Z,102698.94
2023-02-19T19:07:52.860Z,102705.19
2023-02-19T19:10:21.549Z,102704.44
2023-02-19T19:12:50.201Z,102700.22
2023-02-19T19:15:21.470Z,102713.81
2023-02-19T19:17:51.503Z,102713.19
2023-02-19T19:20:22.119Z,102708.75
2023-02-19T19:22:51.424Z,102713.16
2023-02-19T19:25:20.359Z,102722.41
2023-02-19T19:27:51.252Z,102716.03
2023-02-19T19:30:22.634Z,102722.41
2023-02-19T19:32:54.132Z,102719.09
2023-02-19T19:35:24.393Z,102710.38
2023-02-19T19:37:53.388Z,102713.25
2023-02-19T19:40:24.705Z,102712.06
2023-02-19T19:42:56.189Z,102720.59
2023-02-19T19:45:29.954Z,102715.94
2023-02-19T19:48:04.701Z,102716.66
2023-02-19T19:50:33.892Z,102702.81
2023-02-19T19:53:03.002Z,102715.22
2023-02-19T19:55:36.482Z,102708.97
2023-02-19T19:58:05.811Z,102709.81
2023-02-19T20:00:34.278Z,102704.03
2023-02-19T20:03:05.965Z,102701.69
2023-02-19T20:05:35.957Z,102703.97
2023-02-19T20:08:04.613Z,102701.66
2023-02-19T20:10:33.255Z,102696.97
2023-02-19T20:13:03.004Z,102712.06
2023-02-19T20:15:34.334Z,102704.66
2023-02-19T20:18:06.678Z,102701.06
2023-02-19T20:20:35.681Z,102709.53
2023-02-19T20:23:04.155Z,102714.84
2023-02-19T20:25:33.007Z,102712.94
2023-02-19T20:28:03.235Z,102716.47
2023-02-19T20:30:32.195Z,102704.94
2023-02-19T20:33:01.149Z,102704.19
2023-02-19T20:35:31.922Z,102702.13
2023-02-19T20:38:00.676Z,102697.13
2023-02-19T20:40:30.995Z,102698.00
2023-02-19T20:43:01.661Z,102698.78
2023-02-19T20:45:31.253Z,102686.38
2023-02-19T20:48:02.348Z,102677.97
2023-02-19T20:50:32.354Z,102678.47
2023-02-19T20:53:00.994Z,102657.97
2023-02-19T20:55:31.939Z,102660.53
2023-02-19T20:58:00.562Z,102655.50
2023-02-19T21:00:29.137Z,102651.31
2023-02-19T21:02:57.755Z,102655.63
2023-02-19T21:05:26.538Z,102660.94
2023-02-19T21:07:59.038Z,102653.97
2023-02-19T21:10:28.196Z,102662.75
2023-02-19T21:13:00.368Z,102654.72
2023-02-19T21:15:29.774Z,102649.94
2023-02-19T21:17:59.393Z,102662.53
2023-02-19T21:20:31.355Z,102653.03
2023-02-19T21:23:05.654Z,102665.41
2023-02-19T21:25:35.572Z,102680.34
2023-02-19T21:28:04.421Z,102688.41
2023-02-19T21:30:33.442Z,102675.06
2023-02-19T21:33:03.895Z,102672.34
2023-02-19T21:35:32.667Z,102664.50
2023-02-19T21:38:03.816Z,102665.19
2023-02-19T21:40:34.354Z,102668.06
2023-02-19T21:43:03.690Z,102671.34
2023-02-19T21:45:33.738Z,102663.38
2023-02-19T21:48:03.069Z,102655.22
2023-02-19T21:50:32.021Z,102667.66
2023-02-19T21:53:01.658Z,102671.03
2023-02-19T21:55:31.810Z,102676.72
2023-02-19T21:58:00.158Z,102667.50
2023-02-19T22:00:28.764Z,102660.59
2023-02-19T22:02:57.285Z,102661.56
2023-02-19T22:05:26.136Z,102676.94
2023-02-19T22:08:00.477Z,102673.84
2023-02-19T22:10:29.255Z,102670.34
2023-02-19T22:13:00.529Z,102669.38
2023-02-19T22:15:29.379Z,102658.81
2023-02-19T22:17:58.333Z,102645.50
2023-02-19T22:20:28.840Z,102646.41
2023-02-19T22:22:57.185Z,102647.25
2023-02-19T22:25:25.671Z,102639.09
2023-02-19T22:27:54.235Z,102633.00
2023-02-19T22:30:24.229Z,102630.59
2023-02-19T22:32:52.672Z,102634.84
2023-02-19T22:35:21.994Z,102633.84
2023-02-19T22:37:50.528Z,102626.22
2023-02-19T22:40:19.154Z,102619.19
2023-02-19T22:42:48.134Z,102620.09
2023-02-19T22:45:16.462Z,102596.25
2023-02-19T22:47:47.093Z,102599.72
2023-02-19T22:50:18.568Z,102587.00
2023-02-19T22:52:47.199Z,102594.50
2023-02-19T22:55:15.541Z,102582.81
2023-02-19T22:57:43.939Z,102588.97
2023-02-19T23:00:18.367Z,102591.22
2023-02-19T23:02:48.936Z,102586.91
2023-02-19T23:05:17.727Z,102592.66
2023-02-19T23:07:46.661Z,102586.41
2023-02-19T23:10:15.163Z,102593.25
2023-02-19T23:12:43.459Z,102586.84
2023-02-19T23:15:12.408Z,102593.84
2023-02-19T23:17:40.593Z,102593.84
2023-02-19T23:20:11.282Z,102599.25
2023-02-19T23:22:40.671Z,102606.28
2023-02-19T23:25:09.549Z,102610.69
2023-02-19T23:27:39.361Z,102607.25
2023-02-19T23:30:09.649Z,102591.72
2023-02-19T23:32:38.095Z,102587.03
2023-02-19T23:35:06.871Z,102585.97
2023-02-19T23:37:36.708Z,102584.03
2023-02-19T23:40:05.626Z,102584.28
2023-02-19T23:42:34.896Z,102590.69
2023-02-19T23:45:03.458Z,102570.75
2023-02-19T23:47:31.858Z,102585.41
2023-02-19T23:50:00.606Z,102578.50
2023-02-19T23:52:29.261Z,102554.06
2023-02-19T23:55:02.124Z,102555.22
2023-02-19T23:57:30.611Z,102556.63
2023-02-19T23:59:59.242Z,102557.47
